createdAt,value
2023-07-19T00:01:58.601Z,15.29
2023-07-19T00:04:26.063Z,15.50
2023-07-19T00:06:52.823Z,15.76
2023-07-19T00:09:19.542Z,15.89
2023-07-19T00:11:47.110Z,15.68
2023-07-19T00:14:13.757Z,15.88
2023-07-19T00:16:40.592Z,15.94
2023-07-19T00:19:19.433Z,15.98
2023-07-19T00:21:47.771Z,15.87
2023-07-19T00:24:14.506Z,15.94
2023-07-19T00:26:41.459Z,15.82
2023-07-19T00:29:09.014Z,15.78
2023-07-19T00:31:38.711Z,15.90
2023-07-19T00:34:06.870Z,15.77
2023-07-19T00:36:34.614Z,15.65
2023-07-19T00:39:01.174Z,15.73
2023-07-19T00:41:27.962Z,15.16
2023-07-19T00:43:54.734Z,15.57
2023-07-19T00:46:22.406Z,15.70
2023-07-19T00:48:49.255Z,15.16
2023-07-19T00:51:17.659Z,15.71
2023-07-19T00:53:48.573Z,15.64
2023-07-19T00:56:15.446Z,15.53
2023-07-19T00:58:42.696Z,15.55
2023-07-19T01:01:10.313Z,15.43
2023-07-19T01:03:38.046Z,14.91
2023-07-19T01:06:05.343Z,15.34
2023-07-19T01:08:32.314Z,14.85
2023-07-19T01:10:59.212Z,15.08
2023-07-19T01:13:25.802Z,15.17
2023-07-19T01:15:52.593Z,15.08
2023-07-19T01:18:20.096Z,15.08
2023-07-19T01:20:47.815Z,15.06
2023-07-19T01:23:14.702Z,15.10
2023-07-19T01:25:41.394Z,15.07
2023-07-19T01:28:08.742Z,14.94
2023-07-19T01:30:36.331Z,15.00
2023-07-19T01:33:04.101Z,14.96
2023-07-19T01:35:30.895Z,15.07
2023-07-19T01:37:58.780Z,14.92
2023-07-19T01:40:25.457Z,14.83
2023-07-19T01:42:52.481Z,14.83
2023-07-19T01:45:19.600Z,14.85
2023-07-19T01:47:46.222Z,14.88
2023-07-19T01:50:12.859Z,14.92
2023-07-19T01:52:41.179Z,14.61
2023-07-19T01:55:08.399Z,15.03
2023-07-19T01:57:35.263Z,14.90
2023-07-19T02:00:02.751Z,14.79
2023-07-19T02:02:29.862Z,14.91
2023-07-19T02:04:57.376Z,14.80
2023-07-19T02:07:24.116Z,14.71
2023-07-19T02:09:51.176Z,14.76
2023-07-19T02:12:18.491Z,14.77
2023-07-19T02:14:45.257Z,14.95
2023-07-19T02:17:11.952Z,14.84
2023-07-19T02:19:39.319Z,14.81
2023-07-19T02:22:06.032Z,14.52
2023-07-19T02:24:32.686Z,14.87
2023-07-19T02:26:59.716Z,14.85
2023-07-19T02:29:26.362Z,14.90
2023-07-19T02:31:53.618Z,14.61
2023-07-19T02:34:21.608Z,15.00
2023-07-19T02:36:50.298Z,14.79
2023-07-19T02:39:21.250Z,15.04
2023-07-19T02:41:47.945Z,15.00
2023-07-19T02:44:14.726Z,15.01
2023-07-19T02:46:41.520Z,15.12
2023-07-19T02:49:08.275Z,14.98
2023-07-19T02:51:35.036Z,15.06
2023-07-19T02:54:01.699Z,14.63
2023-07-19T02:56:28.361Z,15.01
2023-07-19T02:58:55.067Z,15.02
2023-07-19T03:01:22.124Z,14.99
2023-07-19T03:03:50.478Z,15.07
2023-07-19T03:06:19.079Z,14.87
2023-07-19T03:08:45.871Z,14.94
2023-07-19T03:11:12.543Z,14.92
2023-07-19T03:13:39.225Z,14.59
2023-07-19T03:16:06.859Z,15.11
2023-07-19T03:18:33.892Z,15.04
2023-07-19T03:21:02.029Z,15.09
2023-07-19T03:23:31.752Z,15.25
2023-07-19T03:26:00.167Z,15.13
2023-07-19T03:28:29.449Z,15.26
2023-07-19T03:30:56.778Z,15.16
2023-07-19T03:33:24.646Z,15.30
2023-07-19T03:35:52.862Z,15.35
2023-07-19T03:38:20.206Z,14.95
2023-07-19T03:40:48.339Z,15.36
2023-07-19T03:43:15.324Z,15.24
2023-07-19T03:45:42.164Z,15.37
2023-07-19T03:48:11.398Z,15.27
2023-07-19T03:50:38.038Z,15.32
2023-07-19T03:53:05.802Z,14.78
2023-07-19T03:55:34.061Z,15.59
2023-07-19T03:58:02.574Z,15.57
2023-07-19T04:00:29.668Z,15.65
2023-07-19T04:02:57.326Z,15.68
2023-07-19T04:05:23.987Z,15.88
2023-07-19T04:07:51.667Z,15.77
2023-07-19T04:10:18.480Z,15.99
2023-07-19T04:12:46.158Z,15.97
2023-07-19T04:15:12.838Z,15.65
2023-07-19T04:17:39.491Z,16.07
2023-07-19T04:20:07.775Z,16.04
2023-07-19T04:22:34.581Z,15.55
2023-07-19T04:25:01.594Z,15.55
2023-07-19T04:27:28.240Z,16.05
2023-07-19T04:29:54.873Z,16.26
2023-07-19T04:32:22.349Z,16.32
2023-07-19T04:34:54.289Z,16.32
2023-07-19T04:37:21.708Z,16.35
2023-07-19T04:39:49.205Z,16.49
2023-07-19T04:42:15.911Z,16.45
2023-07-19T04:44:43.360Z,16.62
2023-07-19T04:47:11.074Z,16.21
2023-07-19T04:49:37.937Z,16.60
2023-07-19T04:52:05.041Z,16.70
2023-07-19T04:54:33.963Z,16.84
2023-07-19T04:57:02.206Z,17.05
2023-07-19T04:59:28.955Z,17.09
2023-07-19T05:01:55.834Z,17.25
2023-07-19T05:04:22.884Z,17.37
2023-07-19T05:06:51.080Z,17.44
2023-07-19T05:09:18.970Z,17.50
2023-07-19T05:11:45.876Z,17.57
2023-07-19T05:14:12.589Z,17.56
2023-07-19T05:16:39.264Z,17.70
2023-07-19T05:19:07.304Z,18.00
2023-07-19T05:21:34.778Z,17.92
2023-07-19T05:24:01.583Z,18.04
2023-07-19T05:26:28.301Z,18.17
2023-07-19T05:28:54.975Z,18.28
2023-07-19T05:31:22.137Z,18.18
2023-07-19T05:33:49.169Z,18.39
2023-07-19T05:36:15.887Z,18.71
2023-07-19T05:38:42.570Z,18.99
2023-07-19T05:41:09.349Z,19.10
2023-07-19T05:43:35.998Z,19.26
2023-07-19T05:46:07.337Z,19.35
2023-07-19T05:48:34.929Z,19.30
2023-07-19T05:51:03.456Z,19.51
2023-07-19T05:53:30.244Z,19.74
2023-07-19T05:55:57.798Z,19.98
2023-07-19T05:58:24.797Z,20.01
2023-07-19T06:00:51.572Z,19.49
2023-07-19T06:03:18.560Z,20.15
2023-07-19T06:05:45.847Z,20.19
2023-07-19T06:08:23.640Z,19.93
2023-07-19T06:10:52.457Z,20.26
2023-07-19T06:13:20.255Z,20.30
2023-07-19T06:15:47.056Z,20.31
2023-07-19T06:18:14.709Z,20.39
2023-07-19T06:20:41.387Z,20.50
2023-07-19T06:23:08.151Z,20.57
2023-07-19T06:25:34.836Z,20.61
2023-07-19T06:28:01.734Z,20.67
2023-07-19T06:30:28.651Z,20.63
2023-07-19T06:32:55.378Z,20.75
2023-07-19T06:35:22.135Z,20.84
2023-07-19T06:37:48.761Z,20.91
2023-07-19T06:40:16.396Z,21.10
2023-07-19T06:42:48.966Z,21.23
2023-07-19T06:45:15.616Z,21.40
2023-07-19T06:47:42.196Z,21.64
2023-07-19T06:50:09.543Z,21.92
2023-07-19T06:52:36.249Z,21.86
2023-07-19T06:55:03.036Z,21.79
2023-07-19T06:57:29.780Z,21.84
2023-07-19T06:59:56.391Z,21.75
2023-07-19T07:02:22.967Z,21.68
2023-07-19T07:04:51.473Z,21.89
2023-07-19T07:07:20.597Z,22.15
2023-07-19T07:09:47.543Z,22.44
2023-07-19T07:12:14.483Z,22.81
2023-07-19T07:14:41.285Z,23.08
2023-07-19T07:17:08.209Z,23.16
2023-07-19T07:19:35.364Z,23.25
2023-07-19T07:22:02.055Z,23.50
2023-07-19T07:24:28.594Z,23.91
2023-07-19T07:27:04.160Z,24.43
2023-07-19T07:29:30.736Z,25.04
2023-07-19T07:31:57.490Z,25.58
2023-07-19T07:34:25.382Z,25.58
2023-07-19T07:36:53.067Z,25.47
2023-07-19T07:39:20.299Z,25.69
2023-07-19T07:41:46.937Z,25.42
2023-07-19T07:44:13.508Z,25.14
2023-07-19T07:46:40.237Z,25.07
2023-07-19T07:49:10.593Z,24.73
2023-07-19T07:51:37.219Z,24.94
2023-07-19T07:54:03.887Z,25.17
2023-07-19T07:56:30.699Z,24.86
2023-07-19T07:58:57.317Z,24.52
2023-07-19T08:01:24.297Z,24.91
2023-07-19T08:03:51.228Z,25.13
2023-07-19T08:06:18.015Z,25.40
2023-07-19T08:08:44.608Z,25.69
2023-07-19T08:11:11.354Z,26.29
2023-07-19T08:13:37.937Z,26.72
2023-07-19T08:16:07.568Z,27.09
2023-07-19T08:18:35.471Z,27.66
2023-07-19T08:21:03.236Z,27.81
2023-07-19T08:23:30.004Z,27.88
2023-07-19T08:25:57.804Z,27.70
2023-07-19T08:28:27.778Z,28.03
2023-07-19T08:30:54.902Z,27.60
2023-07-19T08:33:25.737Z,27.61
2023-07-19T08:36:00.180Z,28.20
2023-07-19T08:38:26.856Z,28.45
2023-07-19T08:41:03.974Z,27.96
2023-07-19T08:43:33.496Z,28.47
2023-07-19T08:46:00.533Z,28.24
2023-07-19T08:48:27.538Z,27.93
2023-07-19T08:51:00.534Z,27.62
2023-07-19T08:53:27.642Z,27.60
2023-07-19T08:55:54.956Z,26.20
2023-07-19T08:58:21.886Z,27.05
2023-07-19T09:00:50.100Z,27.73
2023-07-19T09:03:17.955Z,27.32
2023-07-19T09:05:46.240Z,27.93
2023-07-19T09:08:13.965Z,28.24
2023-07-19T09:10:43.656Z,28.43
2023-07-19T09:13:10.522Z,28.30
2023-07-19T09:15:37.282Z,28.12
2023-07-19T09:18:08.238Z,27.33
2023-07-19T09:20:38.563Z,27.07
2023-07-19T09:23:07.067Z,26.94
2023-07-19T09:25:50.586Z,26.35
2023-07-19T09:28:20.713Z,27.13
2023-07-19T09:31:11.614Z,27.61
2023-07-19T09:33:46.418Z,28.62
2023-07-19T09:36:18.201Z,29.16
2023-07-19T09:38:45.368Z,29.32
2023-07-19T09:41:12.782Z,28.85
2023-07-19T09:43:40.848Z,28.52
2023-07-19T09:46:08.161Z,28.72
2023-07-19T09:48:35.278Z,28.95
2023-07-19T09:51:04.387Z,28.97
2023-07-19T09:53:33.802Z,28.56
2023-07-19T09:56:01.057Z,28.18
2023-07-19T09:58:29.439Z,28.38
2023-07-19T10:00:57.002Z,28.16
2023-07-19T10:03:25.792Z,28.34
2023-07-19T10:05:59.306Z,27.47
2023-07-19T10:08:26.002Z,26.88
2023-07-19T10:11:01.546Z,27.01
2023-07-19T10:13:32.807Z,27.08
2023-07-19T10:15:59.818Z,26.74
2023-07-19T10:18:28.376Z,26.78
2023-07-19T10:21:03.504Z,27.25
2023-07-19T10:23:32.046Z,27.78
2023-07-19T10:26:06.273Z,27.19
2023-07-19T10:28:33.113Z,27.23
2023-07-19T10:31:17.169Z,27.00
2023-07-19T10:33:48.517Z,28.32
2023-07-19T10:36:15.550Z,29.06
2023-07-19T10:38:42.290Z,29.56
2023-07-19T10:41:10.525Z,30.17
2023-07-19T10:46:09.628Z,29.17
2023-07-19T10:48:40.358Z,28.91
2023-07-19T10:51:11.719Z,28.15
2023-07-19T10:53:51.750Z,27.81
2023-07-19T10:56:20.448Z,28.31
2023-07-19T10:58:48.202Z,29.22
2023-07-19T11:01:16.202Z,29.72
2023-07-19T11:03:46.332Z,30.63
2023-07-19T11:06:13.852Z,30.45
2023-07-19T11:08:40.729Z,30.04
2023-07-19T11:11:08.516Z,29.84
2023-07-19T11:13:35.665Z,29.95
2023-07-19T11:16:02.504Z,30.41
2023-07-19T11:18:40.273Z,31.82
2023-07-19T11:21:08.185Z,31.82
2023-07-19T11:23:42.421Z,31.21
2023-07-19T11:26:15.067Z,30.71
2023-07-19T11:28:59.692Z,30.34
2023-07-19T11:31:37.032Z,29.87
2023-07-19T11:34:15.592Z,29.68
2023-07-19T11:36:44.076Z,31.03
2023-07-19T11:39:18.656Z,31.88
2023-07-19T11:41:46.881Z,31.07
2023-07-19T11:44:18.084Z,30.18
2023-07-19T11:46:45.287Z,29.69
2023-07-19T11:49:12.194Z,29.96
2023-07-19T11:51:39.368Z,30.08
2023-07-19T11:54:06.651Z,30.34
2023-07-19T11:56:33.535Z,31.54
2023-07-19T11:59:00.243Z,31.57
2023-07-19T12:01:27.744Z,31.26
2023-07-19T12:03:55.017Z,31.61
2023-07-19T12:06:21.822Z,32.23
2023-07-19T12:08:48.557Z,31.85
2023-07-19T12:11:15.238Z,31.43
2023-07-19T12:13:41.829Z,30.44
2023-07-19T12:16:08.382Z,30.10
2023-07-19T12:18:34.982Z,31.14
2023-07-19T12:21:01.700Z,32.44
2023-07-19T12:25:58.056Z,31.81
2023-07-19T12:28:24.658Z,32.37
2023-07-19T12:30:51.511Z,32.99
2023-07-19T12:33:18.640Z,32.60
2023-07-19T12:35:48.396Z,30.92
2023-07-19T12:38:15.758Z,30.71
2023-07-19T12:40:42.717Z,29.51
2023-07-19T12:43:09.370Z,28.55
2023-07-19T12:45:35.994Z,28.28
2023-07-19T12:48:03.921Z,27.97
2023-07-19T12:50:30.669Z,27.51
2023-07-19T12:52:57.279Z,27.14
2023-07-19T12:55:23.826Z,26.79
2023-07-19T12:57:50.466Z,26.33
2023-07-19T13:00:18.438Z,25.41
2023-07-19T13:02:45.988Z,25.34
2023-07-19T13:05:13.233Z,25.68
2023-07-19T13:07:39.878Z,25.92
2023-07-19T13:10:07.064Z,26.77
2023-07-19T13:12:33.689Z,27.25
2023-07-19T13:15:01.370Z,27.29
2023-07-19T13:17:28.038Z,26.70
2023-07-19T13:19:54.780Z,26.50
2023-07-19T13:22:21.290Z,26.50
2023-07-19T13:24:47.877Z,26.92
2023-07-19T13:27:14.430Z,28.63
2023-07-19T13:29:41.049Z,28.25
2023-07-19T13:32:08.175Z,29.03
2023-07-19T13:34:35.525Z,29.19
2023-07-19T13:37:06.494Z,29.41
2023-07-19T13:39:35.092Z,30.53
2023-07-19T13:42:02.265Z,30.44
2023-07-19T13:44:30.581Z,29.64
2023-07-19T13:46:57.533Z,28.78
2023-07-19T13:49:24.662Z,28.58
2023-07-19T13:51:51.489Z,30.16
2023-07-19T13:54:18.095Z,30.56
2023-07-19T13:56:44.692Z,30.01
2023-07-19T13:59:11.504Z,28.63
2023-07-19T14:01:38.203Z,27.29
2023-07-19T14:04:05.240Z,27.07
2023-07-19T14:06:32.095Z,26.84
2023-07-19T14:08:58.851Z,26.90
2023-07-19T14:11:25.699Z,26.95
2023-07-19T14:16:22.370Z,26.64
2023-07-19T14:18:49.358Z,26.14
2023-07-19T14:21:15.977Z,25.98
2023-07-19T14:23:42.671Z,26.02
2023-07-19T14:26:09.369Z,26.54
2023-07-19T14:28:36.058Z,28.10
2023-07-19T14:31:03.598Z,29.34
2023-07-19T14:33:30.833Z,29.93
2023-07-19T14:35:57.629Z,30.33
2023-07-19T14:38:28.741Z,28.92
2023-07-19T14:40:57.301Z,29.17
2023-07-19T14:43:24.762Z,30.06
2023-07-19T14:45:54.872Z,31.51
2023-07-19T14:48:24.541Z,30.43
2023-07-19T14:50:56.149Z,29.28
2023-07-19T14:53:23.437Z,28.73
2023-07-19T14:55:52.708Z,28.75
2023-07-19T14:58:20.405Z,28.40
2023-07-19T15:00:50.771Z,27.61
2023-07-19T15:05:49.607Z,27.09
2023-07-19T15:08:16.632Z,27.34
2023-07-19T15:10:43.339Z,26.90
2023-07-19T15:13:11.725Z,27.25
2023-07-19T15:15:44.687Z,27.88
2023-07-19T15:18:13.751Z,26.82
2023-07-19T15:20:42.571Z,26.03
2023-07-19T15:23:10.696Z,25.02
2023-07-19T15:25:37.521Z,25.08
2023-07-19T15:28:14.638Z,24.53
2023-07-19T15:30:52.167Z,24.39
2023-07-19T15:33:18.781Z,23.85
2023-07-19T15:35:45.448Z,23.31
2023-07-19T15:38:20.295Z,23.71
2023-07-19T15:40:47.037Z,23.75
2023-07-19T15:43:13.730Z,24.54
2023-07-19T15:45:40.404Z,24.60
2023-07-19T15:48:07.345Z,24.07
2023-07-19T15:50:37.484Z,24.46
2023-07-19T15:53:04.220Z,24.84
2023-07-19T15:55:30.876Z,25.54
2023-07-19T15:57:57.498Z,25.70
2023-07-19T16:00:24.031Z,25.28
2023-07-19T16:02:50.728Z,25.44
2023-07-19T16:05:17.395Z,24.62
2023-07-19T16:07:43.994Z,24.87
2023-07-19T16:10:10.797Z,24.96
2023-07-19T16:12:37.380Z,24.77
2023-07-19T16:15:04.342Z,24.80
2023-07-19T16:17:30.993Z,24.81
2023-07-19T16:19:57.644Z,24.93
2023-07-19T16:22:24.300Z,24.73
2023-07-19T16:24:51.325Z,24.75
2023-07-19T16:27:17.963Z,24.62
2023-07-19T16:29:44.813Z,24.38
2023-07-19T16:32:11.371Z,24.29
2023-07-19T16:34:38.049Z,24.16
2023-07-19T16:37:07.227Z,23.54
2023-07-19T16:39:34.350Z,23.87
2023-07-19T16:42:02.183Z,23.65
2023-07-19T16:44:29.844Z,23.63
2023-07-19T16:46:56.511Z,23.55
2023-07-19T16:49:25.256Z,23.50
2023-07-19T16:51:52.317Z,23.12
2023-07-19T16:54:19.074Z,23.28
2023-07-19T16:56:45.744Z,23.19
2023-07-19T16:59:12.439Z,23.21
2023-07-19T17:01:39.244Z,22.96
2023-07-19T17:04:05.994Z,22.82
2023-07-19T17:06:32.755Z,22.58
2023-07-19T17:08:59.438Z,22.57
2023-07-19T17:11:26.081Z,22.35
2023-07-19T17:13:54.127Z,22.19
2023-07-19T17:16:20.879Z,22.29
2023-07-19T17:18:47.641Z,22.30
2023-07-19T17:21:16.738Z,22.34
2023-07-19T17:23:43.465Z,22.04
2023-07-19T17:26:10.338Z,22.03
2023-07-19T17:28:37.244Z,22.01
2023-07-19T17:31:03.961Z,22.00
2023-07-19T17:33:30.848Z,21.89
2023-07-19T17:35:57.610Z,21.80
2023-07-19T17:38:27.058Z,21.67
2023-07-19T17:40:54.855Z,21.63
2023-07-19T17:43:21.489Z,21.58
2023-07-19T17:45:48.273Z,21.55
2023-07-19T17:48:15.031Z,21.41
2023-07-19T17:50:41.774Z,21.41
2023-07-19T17:53:08.583Z,21.33
2023-07-19T17:55:35.207Z,21.29
2023-07-19T17:58:01.853Z,21.13
2023-07-19T18:00:28.503Z,21.13
2023-07-19T18:02:55.301Z,20.67
2023-07-19T18:05:22.110Z,21.22
2023-07-19T18:07:48.777Z,20.64
2023-07-19T18:10:15.476Z,21.12
2023-07-19T18:12:42.159Z,20.96
2023-07-19T18:15:09.509Z,20.77
2023-07-19T18:17:37.287Z,20.72
2023-07-19T18:20:04.695Z,20.61
2023-07-19T18:22:31.433Z,20.34
2023-07-19T18:24:58.430Z,19.70
2023-07-19T18:27:25.137Z,19.26
2023-07-19T18:29:51.769Z,18.95
2023-07-19T18:32:19.543Z,18.92
2023-07-19T18:34:47.003Z,18.98
2023-07-19T18:37:13.643Z,18.92
2023-07-19T18:39:41.212Z,19.00
2023-07-19T18:42:08.058Z,18.85
2023-07-19T18:44:37.791Z,18.42
2023-07-19T18:47:04.946Z,18.68
2023-07-19T18:49:31.841Z,18.40
2023-07-19T18:51:58.820Z,18.60
2023-07-19T18:54:25.633Z,18.66
2023-07-19T18:56:52.371Z,18.64
2023-07-19T18:59:20.685Z,18.43
2023-07-19T19:01:47.599Z,18.00
2023-07-19T19:04:14.365Z,18.33
2023-07-19T19:06:41.160Z,18.45
2023-07-19T19:09:08.163Z,18.40
2023-07-19T19:11:35.227Z,18.43
2023-07-19T19:14:01.938Z,18.31
2023-07-19T19:16:29.534Z,18.36
2023-07-19T19:18:56.292Z,18.24
2023-07-19T19:21:23.926Z,18.18
2023-07-19T19:23:51.023Z,18.17
2023-07-19T19:26:17.695Z,18.27
2023-07-19T19:28:45.626Z,18.07
2023-07-19T19:31:13.591Z,18.28
2023-07-19T19:33:40.761Z,18.32
2023-07-19T19:36:08.123Z,18.34
2023-07-19T19:38:34.862Z,18.18
2023-07-19T19:41:01.560Z,18.29
2023-07-19T19:43:28.279Z,17.86
2023-07-19T19:45:55.094Z,18.29
2023-07-19T19:48:21.877Z,18.30
2023-07-19T19:50:49.478Z,18.36
2023-07-19T19:53:16.384Z,18.12
2023-07-19T19:58:12.567Z,18.37
2023-07-19T20:00:39.374Z,18.46
2023-07-19T20:08:05.454Z,18.29
2023-07-19T20:10:32.167Z,18.07
2023-07-19T20:12:59.657Z,18.06
2023-07-19T20:15:27.331Z,18.15
2023-07-19T20:17:54.222Z,18.09
2023-07-19T20:20:27.135Z,18.01
2023-07-19T20:25:46.552Z,17.70
2023-07-19T20:28:10.893Z,18.27
2023-07-19T20:33:07.440Z,18.15
2023-07-19T20:43:04.764Z,18.43
2023-07-19T20:45:33.095Z,18.29
2023-07-19T20:48:01.685Z,18.50
2023-07-19T20:50:29.046Z,18.41
2023-07-19T20:52:55.725Z,18.52
2023-07-19T20:55:23.375Z,18.54
2023-07-19T20:57:50.060Z,18.49
2023-07-19T21:00:18.573Z,18.54
2023-07-19T21:02:45.324Z,18.56
2023-07-19T21:05:13.035Z,18.42
2023-07-19T21:07:39.698Z,18.39
2023-07-19T21:10:06.913Z,18.27
2023-07-19T21:12:33.533Z,18.14
2023-07-19T21:15:00.245Z,18.14
2023-07-19T21:17:26.936Z,18.16
2023-07-19T21:19:53.730Z,18.17
2023-07-19T21:22:20.474Z,18.01
2023-07-19T21:25:14.532Z,17.74
2023-07-19T21:27:33.982Z,17.72
2023-07-19T21:30:00.747Z,17.79
2023-07-19T21:32:27.636Z,17.42
2023-07-19T21:34:54.584Z,17.63
2023-07-19T21:37:21.888Z,17.57
2023-07-19T21:39:48.879Z,17.61
2023-07-19T21:42:15.589Z,17.63
2023-07-19T21:44:43.314Z,17.62
2023-07-19T21:47:10.146Z,17.53
2023-07-19T21:49:39.630Z,17.67
2023-07-19T21:52:07.038Z,17.76
2023-07-19T21:54:33.839Z,17.79
2023-07-19T21:57:00.601Z,17.80
2023-07-19T21:59:27.347Z,17.76
2023-07-19T22:01:54.085Z,17.59
2023-07-19T22:04:20.870Z,17.17
2023-07-19T22:06:47.507Z,17.46
2023-07-19T22:09:14.948Z,17.60
2023-07-19T22:11:42.390Z,17.49
2023-07-19T22:14:10.283Z,17.07
2023-07-19T22:16:38.370Z,17.09
2023-07-19T22:19:05.177Z,17.43
2023-07-19T22:21:34.724Z,17.45
2023-07-19T22:24:01.500Z,17.37
2023-07-19T22:26:28.118Z,17.52
2023-07-19T22:29:02.527Z,17.50
2023-07-19T22:31:29.539Z,17.15
2023-07-19T22:33:56.402Z,17.54
2023-07-19T22:36:23.523Z,17.04
2023-07-19T22:38:50.385Z,17.42
2023-07-19T22:41:17.079Z,17.48
2023-07-19T22:43:43.699Z,17.61
2023-07-19T22:46:10.406Z,17.37
2023-07-19T22:48:37.323Z,17.52
2023-07-19T22:51:04.380Z,17.48
2023-07-19T22:53:33.616Z,17.43
2023-07-19T22:56:02.496Z,17.56
2023-07-19T22:58:30.504Z,17.31
2023-07-19T23:00:58.806Z,17.63
2023-07-19T23:03:26.381Z,16.76
2023-07-19T23:05:53.870Z,17.60
2023-07-19T23:08:20.762Z,17.52
2023-07-19T23:10:47.960Z,17.63
2023-07-19T23:13:14.621Z,17.44
2023-07-19T23:15:41.271Z,17.62
2023-07-19T23:18:08.154Z,17.46
2023-07-19T23:20:35.411Z,17.61
2023-07-19T23:23:02.169Z,17.35
2023-07-19T23:25:30.043Z,17.36
2023-07-19T23:28:00.935Z,17.47
2023-07-19T23:30:28.847Z,17.41
2023-07-19T23:32:58.641Z,17.27
2023-07-19T23:35:25.569Z,17.49
2023-07-19T23:37:53.377Z,17.36
2023-07-19T23:40:20.220Z,17.47
2023-07-19T23:42:47.029Z,17.36
2023-07-19T23:45:13.694Z,17.40
2023-07-19T23:47:40.353Z,17.49
2023-07-19T23:50:07.727Z,17.37
2023-07-19T23:52:34.900Z,17.18
2023-07-19T23:55:02.559Z,17.20
2023-07-19T23:57:29.405Z,17.09
2023-07-19T23:59:56.295Z,17.08
